Time;durP1;ratioP1;P1;durP2;ratioP2;P2;SDS_P1;SDS_P2;PMS_P1;PMS_P2;Temp;Humidity;BMP_temperature;BMP_pressure;BME280_temperature;BME280_humidity;BME280_pressure;Samples;Min_cycle;Max_cycle;Signal;HPM_P1;HPM_P2
2024/01/13 00:00:43;;;;;;;22.02;11.68;;;;;;;1.23;84.82;100677.31;5089914;28;20032;-77
2024/01/13 00:03:08;;;;;;;24.92;12.75;;;;;;;1.24;85.10;100671.09;5091600;28;20452;-77
2024/01/13 00:05:34;;;;;;;21.17;11.85;;;;;;;0.97;85.35;100635.91;5072956;28;20024;-76
2024/01/13 00:07:59;;;;;;;24.23;12.45;;;;;;;1.05;86.01;100654.41;5090768;28;20578;-76
2024/01/13 00:10:25;;;;;;;22.50;11.55;;;;;;;1.17;86.39;100676.91;5061151;28;20102;-76
2024/01/13 00:12:50;;;;;;;25.40;12.65;;;;;;;1.10;86.22;100653.97;5071582;28;20532;-76
2024/01/13 00:15:15;;;;;;;22.40;12.32;;;;;;;1.20;85.54;100663.47;5070837;28;20033;-75
2024/01/13 00:18:01;;;;;;;25.88;13.07;;;;;;;1.23;84.65;100670.28;5070820;28;20037;-76
2024/01/13 00:20:26;;;;;;;25.63;12.68;;;;;;;1.17;86.14;100676.91;5082824;28;20030;-76
2024/01/13 00:22:51;;;;;;;21.98;11.85;;;;;;;1.28;85.16;100682.97;5090853;28;20028;-75
2024/01/13 00:25:17;;;;;;;23.10;12.85;;;;;;;1.09;86.11;100653.16;5090696;28;20027;-75
2024/01/13 00:27:42;;;;;;;22.00;11.88;;;;;;;1.35;85.61;100678.81;5056489;28;20039;-75
2024/01/13 00:30:08;;;;;;;20.38;11.95;;;;;;;1.36;84.91;100659.44;5059061;28;20035;-76
2024/01/13 00:32:34;;;;;;;22.27;12.32;;;;;;;1.37;85.90;100671.63;5090787;28;20035;-77
2024/01/13 00:34:59;;;;;;;22.25;12.40;;;;;;;1.41;85.61;100662.47;5090894;28;20027;-75
2024/01/13 00:37:24;;;;;;;24.30;12.95;;;;;;;1.31;85.20;100659.88;5090657;28;20036;-76
2024/01/13 00:39:50;;;;;;;22.30;11.43;;;;;;;1.19;87.16;100674.97;5089302;28;20063;-76
2024/01/13 00:42:16;;;;;;;21.25;11.90;;;;;;;1.30;86.16;100660.81;5090935;28;20032;-76
2024/01/13 00:44:41;;;;;;;22.80;12.52;;;;;;;1.40;85.60;100656.38;5089990;28;20104;-76
2024/01/13 00:47:07;;;;;;;22.00;12.57;;;;;;;1.23;86.16;100661.53;5081562;28;20028;-76
2024/01/13 00:49:32;;;;;;;24.30;11.65;;;;;;;1.15;86.63;100652.59;5055474;28;20032;-76
2024/01/13 00:51:58;;;;;;;20.65;12.20;;;;;;;1.45;85.76;100653.31;5070818;28;20478;-77
2024/01/13 00:54:23;;;;;;;20.60;12.10;;;;;;;1.46;84.70;100660.22;5070208;28;20104;-76
2024/01/13 00:56:49;;;;;;;24.10;12.25;;;;;;;1.23;84.94;100648.41;5069819;28;20043;-76
2024/01/13 00:59:14;;;;;;;21.73;12.07;;;;;;;1.39;85.12;100665.22;5070062;28;20050;-77
2024/01/13 01:01:39;;;;;;;22.63;11.80;;;;;;;1.03;84.98;100637.97;5054517;28;20036;-77
2024/01/13 01:04:05;;;;;;;21.20;11.98;;;;;;;0.98;86.44;100620.03;5069501;28;20485;-76
2024/01/13 01:06:30;;;;;;;20.38;11.50;;;;;;;1.17;87.59;100642.75;5069509;28;20032;-76
2024/01/13 01:08:56;;;;;;;19.52;11.07;;;;;;;1.47;86.78;100656.63;5069878;28;20561;-76
2024/01/13 01:11:21;;;;;;;22.20;11.82;;;;;;;1.41;86.22;100638.81;5084210;28;20028;-76
2024/01/13 01:13:46;;;;;;;23.13;12.57;;;;;;;1.33;87.46;100617.69;5063630;28;20090;-76
2024/01/13 01:16:13;;;;;;;24.00;12.25;;;;;;;1.39;88.77;100646.84;5069453;28;20162;-76
2024/01/13 01:18:39;;;;;;;21.98;13.18;;;;;;;1.33;90.15;100644.78;5050929;28;20041;-75
2024/01/13 01:21:04;;;;;;;26.98;14.35;;;;;;;1.29;89.38;100626.81;5060394;28;20099;-76
2024/01/13 01:23:30;;;;;;;26.83;14.95;;;;;;;1.40;87.33;100627.44;5069551;28;20021;-76
2024/01/13 01:25:55;;;;;;;31.30;16.55;;;;;;;1.13;84.14;100596.75;5051881;28;20021;-76
2024/01/13 01:28:22;;;;;;;36.35;18.38;;;;;;;1.33;79.45;100615.88;5069039;28;20032;-77
2024/01/13 01:30:47;;;;;;;42.17;19.08;;;;;;;1.42;75.79;100614.16;5068610;28;20038;-76
2024/01/13 01:33:13;;;;;;;39.20;19.60;;;;;;;1.11;76.50;100629.38;5069349;28;20028;-76
2024/01/13 01:35:38;;;;;;;42.08;20.10;;;;;;;0.67;77.21;100601.00;5069239;28;20025;-76
2024/01/13 01:38:04;;;;;;;43.30;20.98;;;;;;;0.86;77.70;100631.66;5057843;28;20037;-77
2024/01/13 01:40:33;;;;;;;43.15;21.95;;;;;;;0.61;78.79;100630.44;5053619;28;20024;-77
2024/01/13 01:42:58;;;;;;;43.03;21.77;;;;;;;0.71;78.04;100623.38;5069866;28;20115;-76
2024/01/13 01:45:23;;;;;;;46.17;22.48;;;;;;;0.54;78.89;100606.56;5050777;28;20566;-77
2024/01/13 01:47:52;;;;;;;46.65;22.45;;;;;;;0.74;78.21;100612.63;5068792;28;20035;-76
2024/01/13 01:50:17;;;;;;;;;;;;;;;0.88;78.16;100634.13;5050479;28;20055;-76
2024/01/13 01:52:43;;;;;;;43.53;20.88;;;;;;;0.46;78.92;100569.69;5049565;28;19948;-76
2024/01/13 01:55:08;;;;;;;41.95;21.58;;;;;;;0.84;77.56;100606.50;5031007;28;20149;-77
2024/01/13 01:57:38;;;;;;;41.08;20.95;;;;;;;0.77;78.52;100611.50;5036717;28;20119;-77
2024/01/13 02:00:06;;;;;;;46.92;23.25;;;;;;;0.72;77.63;100618.97;5068639;28;20040;-76
2024/01/13 02:02:31;;;;;;;42.92;20.45;;;;;;;0.53;77.88;100614.56;5068898;28;20081;-76
2024/01/13 02:05:00;;;;;;;43.95;21.60;;;;;;;0.38;78.50;100594.00;5068827;28;20032;-77
2024/01/13 02:07:26;;;;;;;47.03;23.92;;;;;;;0.43;78.28;100582.25;5066466;28;20025;-76
2024/01/13 02:09:51;;;;;;;50.80;23.52;;;;;;;0.31;79.52;100592.91;5031488;28;20033;-76
2024/01/13 02:12:17;;;;;;;45.67;21.67;;;;;;;0.46;79.26;100606.44;5051219;28;20021;-76
2024/01/13 02:14:42;;;;;;;50.55;22.98;;;;;;;0.31;80.62;100605.22;5064482;28;20036;-77
2024/01/13 02:17:08;;;;;;;49.03;23.35;;;;;;;0.48;79.24;100612.38;5069040;28;20024;-77
2024/01/13 02:19:33;;;;;;;60.50;26.42;;;;;;;0.47;79.40;100596.75;5068302;28;20029;-76
2024/01/13 02:21:59;;;;;;;52.58;25.23;;;;;;;0.38;80.28;100590.56;5080571;28;20408;-76
2024/01/13 02:24:25;;;;;;;58.05;27.88;;;;;;;0.09;81.26;100574.84;5089614;28;20493;-76
2024/01/13 02:26:50;;;;;;;52.50;23.70;;;;;;;0.29;80.94;100587.00;5089189;28;20034;-77
2024/01/13 02:29:16;;;;;;;52.38;24.45;;;;;;;0.47;80.41;100594.13;5073172;28;20919;-76
2024/01/13 02:31:41;;;;;;;52.45;23.92;;;;;;;0.48;80.72;100608.94;5053919;28;20032;-75
2024/01/13 02:34:07;;;;;;;41.75;20.05;;;;;;;0.39;80.37;100593.06;5054899;28;20024;-75
2024/01/13 02:36:32;;;;;;;51.92;23.50;;;;;;;0.43;81.67;100600.63;5054992;28;20025;-76
2024/01/13 02:38:57;;;;;;;46.40;21.52;;;;;;;0.19;81.95;100573.88;5073380;28;20032;-76
2024/01/13 02:41:23;;;;;;;51.15;23.05;;;;;;;0.27;83.17;100604.66;5076737;28;20405;-76
2024/01/13 02:43:49;;;;;;;49.10;23.73;;;;;;;0.35;82.19;100599.56;5073313;28;20048;-76
2024/01/13 02:46:15;;;;;;;49.47;23.77;;;;;;;0.29;84.24;100587.00;5055466;28;20489;-76
2024/01/13 02:48:44;;;;;;;48.92;23.05;;;;;;;0.46;83.17;100608.25;5064438;28;20031;-76
2024/01/13 02:51:15;;;;;;;52.05;23.10;;;;;;;0.48;83.41;100601.06;5090240;28;20032;-77
2024/01/13 02:53:40;;;;;;;46.47;22.10;;;;;;;0.31;84.67;100586.84;5073731;28;20035;-76
2024/01/13 02:56:06;;;;;;;52.70;21.33;;;;;;;0.32;84.44;100585.88;5072963;28;20467;-76
2024/01/13 02:58:31;;;;;;;48.33;23.08;;;;;;;0.52;84.61;100589.31;5069266;28;20058;-76
2024/01/13 03:00:57;;;;;;;45.47;20.45;;;;;;;0.26;85.32;100581.19;5104050;28;20032;-76
2024/01/13 03:03:22;;;;;;;52.58;24.20;;;;;;;0.33;86.29;100590.16;5087466;28;20036;-76
2024/01/13 03:05:47;;;;;;;51.20;23.92;;;;;;;0.29;86.79;100580.91;5085361;28;20028;-75
2024/01/13 03:08:13;;;;;;;46.60;22.42;;;;;;;0.33;87.30;100587.53;5070545;28;20438;-77
2024/01/13 03:10:38;;;;;;;54.17;25.35;;;;;;;0.50;88.51;100607.81;5106202;28;20031;-77
2024/01/13 03:13:04;;;;;;;54.03;24.40;;;;;;;0.42;88.83;100591.13;5087604;28;20040;-76
2024/01/13 03:15:29;;;;;;;55.75;24.65;;;;;;;0.57;89.01;100623.81;5080595;28;20029;-77
2024/01/13 03:17:55;;;;;;;51.72;24.10;;;;;;;0.58;88.80;100615.00;5078895;28;20046;-76
2024/01/13 03:20:20;;;;;;;54.53;26.05;;;;;;;0.54;88.31;100606.56;5079484;28;20062;-77
2024/01/13 03:22:45;;;;;;;58.50;25.73;;;;;;;0.36;89.91;100603.81;5082225;28;20174;-77
2024/01/13 03:25:11;;;;;;;53.88;24.92;;;;;;;0.27;90.66;100578.44;5077768;28;20021;-77
2024/01/13 03:27:36;;;;;;;53.28;23.63;;;;;;;0.35;91.11;100617.91;5078599;28;20050;-77
2024/01/13 03:30:02;;;;;;;60.10;27.00;;;;;;;0.21;92.00;100602.59;5093361;28;20024;-77
2024/01/13 03:32:28;;;;;;;54.15;25.23;;;;;;;0.33;92.97;100619.84;5087713;28;20050;-77
2024/01/13 03:34:54;;;;;;;55.40;24.45;;;;;;;0.29;91.88;100592.22;5075049;28;20065;-77
2024/01/13 03:37:19;;;;;;;57.88;26.17;;;;;;;0.31;92.60;100615.72;5074313;28;20115;-76
2024/01/13 03:39:44;;;;;;;51.53;24.00;;;;;;;0.49;91.61;100614.03;5072062;28;20054;-77
2024/01/13 03:42:10;;;;;;;52.05;26.35;;;;;;;0.31;92.44;100605.22;5059832;28;20055;-77
2024/01/13 03:44:35;;;;;;;51.25;24.38;;;;;;;0.46;89.62;100600.38;5073945;28;20077;-76
2024/01/13 03:47:01;;;;;;;51.55;23.00;;;;;;;0.42;87.71;100606.88;5091803;28;20039;-77
2024/01/13 03:49:26;;;;;;;49.40;23.10;;;;;;;0.14;86.76;100586.59;5064714;28;20096;-77
2024/01/13 03:51:51;;;;;;;48.88;22.00;;;;;;;0.18;88.19;100601.09;5074066;28;20031;-75
2024/01/13 03:54:17;;;;;;;41.42;20.00;;;;;;;0.28;86.19;100606.31;5073090;28;20510;-76
2024/01/13 03:56:42;;;;;;;44.83;20.27;;;;;;;0.11;87.08;100604.38;5091901;28;20035;-75
2024/01/13 03:59:11;;;;;;;39.15;19.13;;;;;;;0.17;83.59;100614.31;5091500;28;20136;-76
2024/01/13 04:01:37;;;;;;;33.40;16.83;;;;;;;0.01;81.69;100616.66;5073118;28;20516;-77
2024/01/13 04:04:02;;;;;;;38.65;16.88;;;;;;;0.16;80.44;100618.75;5074303;28;20029;-76
2024/01/13 04:06:27;;;;;;;38.58;16.80;;;;;;;0.06;79.24;100620.53;5071509;28;20087;-76
2024/01/13 04:08:53;;;;;;;38.20;16.83;;;;;;;0.01;78.35;100621.91;5070892;28;20581;-76
2024/01/13 04:11:18;;;;;;;35.55;17.55;;;;;;;0.08;78.84;100621.22;5071521;28;20036;-76
2024/01/13 04:13:44;;;;;;;35.25;16.85;;;;;;;-0.11;76.92;100589.75;5055655;28;20501;-76
2024/01/13 04:16:09;;;;;;;33.40;16.45;;;;;;;-0.04;75.61;100622.28;5070617;28;20441;-77
2024/01/13 04:18:34;;;;;;;33.90;15.15;;;;;;;-0.17;75.92;100609.47;5070589;28;20036;-76
2024/01/13 04:21:00;;;;;;;32.47;15.18;;;;;;;-0.09;74.13;100627.13;5089667;28;20031;-76
2024/01/13 04:23:25;;;;;;;32.42;14.02;;;;;;;-0.31;74.31;100615.09;5089324;28;20036;-76
2024/01/13 04:25:51;;;;;;;32.53;16.63;;;;;;;-0.33;75.24;100609.16;5091029;28;20032;-75
2024/01/13 04:28:16;;;;;;;27.30;13.55;;;;;;;-0.21;72.47;100622.00;5090825;28;20024;-76
2024/01/13 04:30:42;;;;;;;24.63;11.95;;;;;;;-0.34;72.51;100631.09;5075619;28;20078;-75
2024/01/13 04:33:07;;;;;;;29.45;12.70;;;;;;;-0.52;72.90;100621.25;5078751;28;20044;-76
2024/01/13 04:35:32;;;;;;;29.13;13.60;;;;;;;-0.35;72.58;100624.19;5090542;28;20130;-75
2024/01/13 04:37:58;;;;;;;30.15;14.27;;;;;;;-0.36;70.77;100638.25;5090339;28;20024;-77
2024/01/13 04:40:23;;;;;;;24.50;12.82;;;;;;;-0.50;69.49;100640.28;5078574;28;20025;-76
2024/01/13 04:42:49;;;;;;;30.25;13.65;;;;;;;-0.41;70.49;100647.34;5074043;28;20127;-76
2024/01/13 04:45:14;;;;;;;31.40;14.15;;;;;;;-0.57;70.50;100628.69;5090393;28;20089;-76
2024/01/13 04:47:40;;;;;;;29.45;12.88;;;;;;;-0.47;69.99;100637.41;5090732;28;20123;-76
2024/01/13 04:50:06;;;;;;;29.33;13.38;;;;;;;-0.46;69.07;100653.94;5082050;28;20054;-76
2024/01/13 04:52:31;;;;;;;27.15;12.93;;;;;;;-0.33;69.31;100646.66;5070809;28;20085;-76
2024/01/13 04:54:57;;;;;;;26.63;12.43;;;;;;;-0.40;69.15;100658.66;5071916;28;20024;-76
2024/01/13 04:57:22;;;;;;;23.58;11.80;;;;;;;-0.28;68.90;100652.34;5090090;28;20475;-76
2024/01/13 04:59:47;;;;;;;30.30;14.35;;;;;;;-0.47;68.74;100647.88;5090561;28;20016;-76
2024/01/13 05:02:13;;;;;;;29.20;13.95;;;;;;;-0.38;69.17;100669.84;5089596;28;20081;-75
2024/01/13 05:04:39;;;;;;;31.95;15.23;;;;;;;-0.55;68.94;100649.47;5088085;28;20023;-77
2024/01/13 05:07:04;;;;;;;24.13;11.90;;;;;;;-0.59;69.16;100662.03;5090016;28;20114;-76
2024/01/13 05:09:30;;;;;;;34.40;16.67;;;;;;;-0.63;70.14;100631.84;5070835;28;20093;-76
2024/01/13 05:11:55;;;;;;;34.35;14.40;;;;;;;-0.58;69.03;100657.63;5051694;28;20409;-76
2024/01/13 05:14:21;;;;;;;29.60;14.50;;;;;;;-0.46;69.27;100665.25;5053855;28;20194;-76
2024/01/13 05:16:46;;;;;;;30.85;13.63;;;;;;;-0.46;69.60;100654.78;5051817;28;20034;-75
2024/01/13 05:19:11;;;;;;;27.40;13.15;;;;;;;-0.30;68.78;100669.19;5069049;28;20029;-76
2024/01/13 05:21:37;;;;;;;28.98;14.00;;;;;;;-0.42;70.33;100653.53;5069927;28;20137;-75
2024/01/13 05:24:02;;;;;;;28.63;12.93;;;;;;;-0.47;69.77;100660.13;5079825;28;20020;-75
2024/01/13 05:26:28;;;;;;;34.35;15.18;;;;;;;-0.34;69.01;100662.53;5089839;28;20055;-76
2024/01/13 05:28:53;;;;;;;31.65;14.43;;;;;;;-0.38;69.08;100632.31;5071388;28;20026;-76
2024/01/13 05:31:19;;;;;;;28.55;12.15;;;;;;;-0.20;68.23;100664.78;5089875;28;20550;-77
2024/01/13 05:33:44;;;;;;;30.05;13.93;;;;;;;-0.50;69.29;100648.13;5087741;28;20016;-76
2024/01/13 05:36:09;;;;;;;22.85;11.75;;;;;;;-0.68;69.45;100639.25;5088387;28;20111;-76
2024/01/13 05:38:35;;;;;;;29.77;14.30;;;;;;;-0.65;69.44;100645.06;5089346;28;20496;-76
2024/01/13 05:41:00;;;;;;;31.77;12.45;;;;;;;-0.84;69.71;100624.84;5089065;28;20028;-76
2024/01/13 05:43:26;;;;;;;21.73;11.85;;;;;;;-0.89;69.58;100637.50;5084819;28;20024;-77
2024/01/13 05:45:52;;;;;;;30.25;14.48;;;;;;;-0.67;70.24;100646.16;5089116;28;20028;-76
2024/01/13 05:48:18;;;;;;;35.97;17.13;;;;;;;-0.64;70.21;100645.88;5088862;28;20024;-76
2024/01/13 05:50:43;;;;;;;32.97;15.20;;;;;;;-0.55;69.93;100647.72;5070035;28;20039;-76
2024/01/13 05:53:08;;;;;;;25.92;12.63;;;;;;;-0.61;69.12;100619.44;5087413;28;20027;-76
2024/01/13 05:55:34;;;;;;;34.53;14.98;;;;;;;-0.77;69.39;100619.91;5088109;28;20038;-77
2024/01/13 05:57:59;;;;;;;30.17;12.73;;;;;;;-0.94;70.37;100621.38;5088837;28;20032;-76
2024/01/13 06:00:24;;;;;;;32.20;15.15;;;;;;;-0.86;70.44;100613.69;5088538;28;20032;-77
2024/01/13 06:02:50;;;;;;;35.90;16.00;;;;;;;-0.53;70.55;100637.94;5088910;28;20028;-75
2024/01/13 06:05:15;;;;;;;33.75;14.65;;;;;;;-0.66;69.67;100639.94;5087907;28;20032;-77
2024/01/13 06:07:42;;;;;;;35.70;16.35;;;;;;;-0.56;69.15;100619.84;5090833;28;20123;-77
2024/01/13 06:10:08;;;;;;;29.77;14.57;;;;;;;-0.54;69.26;100641.50;5093188;28;20122;-76
2024/01/13 06:12:33;;;;;;;35.55;15.63;;;;;;;-0.56;68.09;100632.13;5092898;28;20114;-76
2024/01/13 06:14:59;;;;;;;37.92;17.50;;;;;;;-0.45;68.88;100632.00;5073962;28;20127;-75
2024/01/13 06:17:24;;;;;;;32.45;14.02;;;;;;;-0.48;68.78;100635.72;5090257;28;20032;-76
2024/01/13 06:19:49;;;;;;;37.58;17.30;;;;;;;-0.40;68.32;100614.09;5092709;28;20660;-77
2024/01/13 06:22:15;;;;;;;33.53;14.13;;;;;;;-0.42;67.81;100635.19;5072243;28;20034;-77
2024/01/13 06:24:40;;;;;;;28.98;12.68;;;;;;;-0.81;68.45;100594.94;5084726;28;20416;-77
2024/01/13 06:27:06;;;;;;;31.08;14.60;;;;;;;-0.64;68.71;100640.63;5072234;28;20063;-77
2024/01/13 06:29:31;;;;;;;33.80;16.02;;;;;;;-0.53;69.33;100631.84;5072652;28;20037;-76
2024/01/13 06:31:57;;;;;;;29.80;14.38;;;;;;;-0.61;68.90;100617.63;5072442;28;20028;-77
2024/01/13 06:34:22;;;;;;;32.08;15.82;;;;;;;-0.71;68.72;100622.00;5074819;28;20169;-76
2024/01/13 06:36:47;;;;;;;33.47;16.17;;;;;;;-0.60;69.29;100623.69;5072361;28;20029;-76
2024/01/13 06:39:13;;;;;;;36.92;16.95;;;;;;;-0.34;68.57;100646.81;5072006;28;20122;-76
2024/01/13 06:41:38;;;;;;;29.65;14.02;;;;;;;-0.43;68.37;100637.94;5071558;28;20028;-76
2024/01/13 06:44:04;;;;;;;49.78;22.60;;;;;;;-0.15;68.88;100646.84;5054106;28;20028;-77
2024/01/13 06:46:29;;;;;;;37.85;17.63;;;;;;;-0.06;68.97;100646.06;5091588;28;20471;-76
2024/01/13 06:48:55;;;;;;;32.78;14.43;;;;;;;-0.29;68.08;100632.31;5074084;28;20504;-76
2024/01/13 06:51:20;;;;;;;35.58;16.42;;;;;;;-0.26;67.80;100647.81;5072534;28;20036;-77
2024/01/13 06:53:46;;;;;;;45.50;21.70;;;;;;;-0.23;67.85;100607.38;5071605;28;20413;-77
2024/01/13 06:56:11;;;;;;;29.40;15.18;;;;;;;-0.45;67.36;100609.28;5074310;28;20107;-77
2024/01/13 06:58:37;;;;;;;36.45;16.42;;;;;;;-0.23;68.17;100660.63;5072031;28;20047;-77
2024/01/13 07:01:02;;;;;;;39.08;18.45;;;;;;;-0.52;67.84;100665.78;5071015;28;20020;-76
2024/01/13 07:03:27;;;;;;;35.25;16.48;;;;;;;-0.51;67.51;100651.72;5053634;28;20105;-77
2024/01/13 07:05:53;;;;;;;27.92;11.80;;;;;;;-0.64;66.29;100635.41;5086500;28;20038;-77
2024/01/13 07:08:18;;;;;;;28.52;13.27;;;;;;;-0.57;66.43;100667.97;5073179;28;20042;-76
2024/01/13 07:10:44;;;;;;;40.63;16.60;;;;;;;-0.54;66.89;100664.25;5091709;28;20020;-76
2024/01/13 07:13:09;;;;;;;34.75;14.77;;;;;;;-0.84;65.31;100619.63;5055265;28;20024;-76
2024/01/13 07:15:34;;;;;;;28.55;14.38;;;;;;;-0.75;66.29;100632.88;5073802;28;20497;-76
2024/01/13 07:18:00;;;;;;;29.05;13.45;;;;;;;-0.50;65.44;100669.09;5070455;28;20032;-76
2024/01/13 07:20:26;;;;;;;32.97;14.80;;;;;;;-0.51;65.04;100650.88;5071377;28;20028;-76
2024/01/13 07:22:52;;;;;;;26.98;13.20;;;;;;;-0.17;64.79;100663.69;5071432;28;20404;-77
2024/01/13 07:25:18;;;;;;;32.97;16.13;;;;;;;-0.08;64.72;100632.25;5079332;28;20477;-76
2024/01/13 07:27:43;;;;;;;33.78;14.75;;;;;;;0.14;63.01;100615.44;5091520;28;20027;-76
2024/01/13 07:30:09;;;;;;;31.33;14.13;;;;;;;0.23;62.34;100634.75;5091295;28;20024;-76
2024/01/13 07:32:34;;;;;;;33.42;14.75;;;;;;;0.16;62.86;100638.88;5080072;28;20039;-76
2024/01/13 07:35:00;;;;;;;32.03;15.32;;;;;;;0.52;61.45;100670.66;5057810;28;20020;-77
2024/01/13 07:37:25;;;;;;;29.17;14.20;;;;;;;0.65;61.43;100660.69;5091841;28;20420;-77
2024/01/13 07:39:51;;;;;;;29.02;13.38;;;;;;;0.32;61.13;100648.84;5091721;28;20096;-78
2024/01/13 07:42:16;;;;;;;30.13;13.07;;;;;;;0.50;59.82;100664.72;5091179;28;20036;-77
2024/01/13 07:44:42;;;;;;;32.83;14.18;;;;;;;0.62;59.34;100670.66;5091109;28;20016;-76
2024/01/13 07:47:08;;;;;;;28.48;12.60;;;;;;;0.60;60.41;100657.66;5090741;28;20111;-76
2024/01/13 07:49:33;;;;;;;30.95;14.48;;;;;;;0.78;59.89;100648.13;5091331;28;20114;-76
2024/01/13 07:51:59;;;;;;;30.17;13.88;;;;;;;1.11;58.87;100661.72;5086473;28;20056;-77
2024/01/13 07:54:24;;;;;;;28.40;12.95;;;;;;;0.98;58.97;100642.81;5070876;28;20448;-77
2024/01/13 07:56:50;;;;;;;25.83;11.50;;;;;;;0.72;57.56;100650.47;5073265;28;20039;-77
2024/01/13 07:59:17;;;;;;;28.27;13.60;;;;;;;0.78;57.78;100624.50;5070485;28;20033;-77
2024/01/13 08:01:42;;;;;;;29.70;14.75;;;;;;;1.11;57.43;100630.19;5070621;28;20059;-76
2024/01/13 08:04:08;;;;;;;26.58;11.35;;;;;;;0.94;56.53;100628.31;5070137;28;20024;-76
2024/01/13 08:06:34;;;;;;;27.95;12.80;;;;;;;0.80;56.86;100633.06;5066871;28;20039;-77
2024/01/13 08:08:59;;;;;;;26.70;14.25;;;;;;;0.59;58.54;100642.88;5090689;28;20027;-77
2024/01/13 08:11:25;;;;;;;31.02;13.93;;;;;;;1.10;57.00;100660.06;5091059;28;20043;-76
2024/01/13 08:13:50;;;;;;;26.40;12.35;;;;;;;0.99;57.24;100641.84;5090245;28;20048;-76
2024/01/13 08:16:16;;;;;;;29.80;14.05;;;;;;;1.06;57.80;100663.94;5070729;28;20043;-76
2024/01/13 08:18:41;;;;;;;28.40;13.80;;;;;;;1.15;56.75;100662.28;5090340;28;20063;-76
2024/01/13 08:21:07;;;;;;;25.48;12.38;;;;;;;0.95;57.52;100646.56;5090283;28;20082;-75
2024/01/13 08:23:33;;;;;;;29.00;14.05;;;;;;;1.10;58.30;100662.69;5072504;28;20032;-76
2024/01/13 08:25:59;;;;;;;28.75;13.07;;;;;;;0.91;57.56;100623.34;5089286;28;20036;-76
2024/01/13 08:28:24;;;;;;;28.10;13.77;;;;;;;1.45;56.08;100653.31;5090221;28;20443;-76
2024/01/13 08:30:50;;;;;;;23.60;12.27;;;;;;;1.73;55.25;100666.47;5089318;28;20840;-76
2024/01/13 08:33:15;;;;;;;25.55;11.90;;;;;;;1.59;57.02;100667.75;5078841;28;20020;-76
2024/01/13 08:35:40;;;;;;;27.23;13.13;;;;;;;1.77;56.57;100662.56;5070302;28;20036;-76
2024/01/13 08:38:06;;;;;;;29.05;14.30;;;;;;;1.88;57.55;100659.75;5090491;28;20032;-76
2024/01/13 08:40:31;;;;;;;29.35;13.80;;;;;;;2.14;56.67;100651.94;5071621;28;20044;-76
2024/01/13 08:42:59;;;;;;;28.00;11.23;;;;;;;1.86;56.25;100666.94;5082342;28;20013;-76
2024/01/13 08:45:29;;;;;;;23.92;12.93;;;;;;;1.51;55.99;100621.19;5052070;28;20068;-76
2024/01/13 08:47:56;;;;;;;23.05;12.45;;;;;;;1.58;57.17;100666.94;5089427;28;20032;-77
2024/01/13 08:50:22;;;;;;;27.80;12.27;;;;;;;1.47;57.88;100651.38;5090008;28;20032;-76
2024/01/13 08:52:48;;;;;;;26.60;13.25;;;;;;;1.37;58.05;100634.81;5084739;28;20071;-76
2024/01/13 08:55:13;;;;;;;24.45;13.07;;;;;;;1.36;58.14;100643.66;5069671;28;20043;-76
2024/01/13 08:57:39;;;;;;;30.27;15.65;;;;;;;2.13;57.09;100629.25;5071844;28;20040;-76
2024/01/13 09:00:06;;;;;;;25.65;13.07;;;;;;;2.19;55.88;100609.41;5051262;28;20439;-76
2024/01/13 09:02:31;;;;;;;26.05;12.60;;;;;;;2.32;56.39;100646.69;5069227;28;20024;-76
2024/01/13 09:04:57;;;;;;;25.25;11.63;;;;;;;2.93;58.15;100633.66;5051326;28;20021;-76
2024/01/13 09:07:22;;;;;;;24.17;12.63;;;;;;;2.59;54.71;100637.84;5082935;28;20024;-76
2024/01/13 09:09:48;;;;;;;24.08;11.55;;;;;;;2.68;55.09;100620.31;5089141;28;20655;-76
2024/01/13 09:12:13;;;;;;;22.27;11.65;;;;;;;2.17;56.24;100606.09;5070868;28;20028;-76
2024/01/13 09:14:38;;;;;;;24.15;12.07;;;;;;;1.97;57.23;100636.97;5070786;28;20048;-76
2024/01/13 09:17:04;;;;;;;26.95;13.82;;;;;;;2.38;57.93;100632.91;5053318;28;20021;-76
2024/01/13 09:19:29;;;;;;;30.33;14.85;;;;;;;3.01;55.55;100624.00;5068767;28;20029;-76
2024/01/13 09:21:56;;;;;;;35.83;16.65;;;;;;;3.80;51.11;100626.44;5068900;28;20045;-76
2024/01/13 09:24:21;;;;;;;26.48;14.88;;;;;;;3.62;53.35;100623.94;5068639;28;20032;-76
2024/01/13 09:26:48;;;;;;;28.33;14.90;;;;;;;4.33;55.14;100622.59;5071358;28;20060;-77
2024/01/13 09:29:15;;;;;;;29.65;15.15;;;;;;;3.88;54.57;100600.09;5069085;28;20036;-76
2024/01/13 09:31:41;;;;;;;33.90;15.82;;;;;;;3.76;52.26;100614.56;5068886;28;20039;-76
2024/01/13 09:34:09;;;;;;;26.58;13.35;;;;;;;4.49;51.72;100584.78;5069111;28;20029;-76
2024/01/13 09:36:35;;;;;;;27.92;13.80;;;;;;;4.50;49.44;100607.59;5055225;28;20102;-76
2024/01/13 09:39:00;;;;;;;26.80;13.18;;;;;;;3.85;53.84;100579.31;5070813;28;20111;-76
2024/01/13 09:41:25;;;;;;;26.27;12.68;;;;;;;3.76;51.67;100591.69;5070550;28;20169;-76
2024/01/13 09:44:02;;;;;;;28.00;14.25;;;;;;;3.42;51.54;100589.09;5070703;28;20032;-76
2024/01/13 09:46:29;;;;;;;26.38;12.30;;;;;;;3.16;52.68;100576.78;5087033;28;20021;-76
2024/01/13 09:48:55;;;;;;;22.08;11.95;;;;;;;3.37;53.24;100583.47;5070552;28;20174;-76
2024/01/13 09:51:22;;;;;;;28.80;14.95;;;;;;;3.49;54.53;100545.28;5088754;28;20119;-75
2024/01/13 09:53:54;;;;;;;28.27;15.65;;;;;;;3.89;52.09;100572.72;5088916;28;20049;-76
2024/01/13 09:56:30;;;;;;;25.83;12.40;;;;;;;3.59;50.93;100571.50;5088346;28;20103;-76
2024/01/13 09:58:55;;;;;;;24.05;12.70;;;;;;;3.06;52.64;100548.91;5069346;28;20493;-76
2024/01/13 10:01:21;;;;;;;20.13;11.50;;;;;;;3.58;51.40;100554.88;5068052;28;20070;-76
2024/01/13 10:03:46;;;;;;;26.88;13.65;;;;;;;3.78;49.68;100562.47;5073492;28;20032;-76
2024/01/13 10:06:12;;;;;;;24.67;12.60;;;;;;;3.69;50.82;100530.00;5088462;28;20520;-76
2024/01/13 10:08:38;;;;;;;28.48;13.55;;;;;;;4.09;49.26;100557.41;5070983;28;20035;-76
2024/01/13 10:11:03;;;;;;;23.35;12.90;;;;;;;3.95;48.36;100547.50;5050262;28;20111;-75
2024/01/13 10:13:32;;;;;;;21.42;11.07;;;;;;;4.09;48.05;100552.13;5050063;28;20094;-76
2024/01/13 10:15:57;;;;;;;23.48;12.50;;;;;;;3.82;48.68;100530.34;5068216;28;20120;-76
2024/01/13 10:18:23;;;;;;;26.88;16.30;;;;;;;4.11;47.50;100549.34;5070966;28;20897;-76
2024/01/13 10:20:49;;;;;;;32.22;20.63;;;;;;;3.98;49.07;100516.34;5067998;28;20048;-76
2024/01/13 10:23:15;;;;;;;27.27;16.83;;;;;;;4.23;47.37;100532.19;5050014;28;20497;-76
2024/01/13 10:25:41;;;;;;;26.75;16.13;;;;;;;4.76;46.72;100522.00;5068575;28;20032;-76
2024/01/13 10:28:06;;;;;;;21.88;11.63;;;;;;;4.27;46.65;100536.13;5079899;28;20042;-75
2024/01/13 10:30:32;;;;;;;22.35;11.45;;;;;;;4.57;46.03;100529.31;5070244;28;20055;-76
2024/01/13 10:32:59;;;;;;;26.80;15.20;;;;;;;4.10;49.47;100518.66;5088010;28;20029;-76
2024/01/13 10:35:27;;;;;;;25.30;14.65;;;;;;;4.53;47.00;100525.34;5088152;28;20024;-76
2024/01/13 10:37:55;;;;;;;26.67;16.23;;;;;;;4.49;47.41;100478.31;5086138;28;20081;-77
2024/01/13 10:40:20;;;;;;;26.83;14.60;;;;;;;5.17;44.74;100520.06;5076653;28;20082;-76
2024/01/13 10:42:54;;;;;;;26.92;15.30;;;;;;;5.04;43.91;100506.53;5076925;28;20555;-76
2024/01/13 10:45:23;;;;;;;28.25;14.63;;;;;;;5.14;45.61;100520.38;5078509;28;20020;-76
2024/01/13 10:47:53;;;;;;;29.80;15.50;;;;;;;5.24;44.20;100502.47;5079901;28;20492;-77
2024/01/13 10:50:19;;;;;;;38.17;19.45;;;;;;;5.48;44.49;100521.06;5077739;28;20020;-76
2024/01/13 10:53:06;;;;;;;30.35;14.77;;;;;;;4.87;44.64;100503.16;5070656;28;20067;-77
2024/01/13 10:55:34;;;;;;;56.65;23.42;;;;;;;5.08;44.70;100505.19;5059109;28;20131;-76
2024/01/13 10:58:01;;;;;;;35.35;15.60;;;;;;;5.06;45.09;100501.91;5058058;28;20032;-77
2024/01/13 11:00:30;;;;;;;27.08;13.95;;;;;;;5.39;45.01;100499.09;5070460;28;20040;-77
2024/01/13 11:02:57;;;;;;;23.60;12.20;;;;;;;5.11;44.22;100481.09;5071700;28;20032;-77
2024/01/13 11:05:23;;;;;;;26.27;13.30;;;;;;;4.99;44.47;100495.69;5071511;28;20031;-76
2024/01/13 11:07:50;;;;;;;22.75;12.80;;;;;;;4.53;44.00;100459.31;5075857;28;20038;-76